Putnam, Oklahoma
Current Conditions -  °F | °C
As of 5:55 AM on Saturday 01 Nov 2014 (Local Time) from KCLK Reporting Station
Clear Clear  
Wind Chill: -2°   Ceiling: Unl
Heat Index:   Visibility: 10mi
Dew Point: -5°   Wind: 6mph
Humidity: 65%   Direction: 140°SE
Pressure: 30.38"   Gusts: NA
Location:  35.86°N, 98.97°W
Report Text: KCLK 011055Z AUTO 14005KT 10SM CLR 01/M05 A3038 RMK AO2
Loading
Personal Weather Stations






























Interactive Weather Map
Tropical Storm Tracking
New forecast layout! Learn more

10-Day Weather Forecast

Advertisements
Track Severe Weather on mobile